sensor_id;sensor_type;location;lat;lon;timestamp;temperature;humidity
7972;DHT22;4031;49.758;6.120;2022-07-29T00:00:43;17.80;99.90
7972;DHT22;4031;49.758;6.120;2022-07-29T00:03:10;17.80;99.90
7972;DHT22;4031;49.758;6.120;2022-07-29T00:05:39;17.70;99.90
7972;DHT22;4031;49.758;6.120;2022-07-29T00:08:05;17.70;99.90
7972;DHT22;4031;49.758;6.120;2022-07-29T00:10:32;17.70;99.90
7972;DHT22;4031;49.758;6.120;2022-07-29T00:12:58;17.50;99.90
7972;DHT22;4031;49.758;6.120;2022-07-29T00:15:24;17.50;99.90
7972;DHT22;4031;49.758;6.120;2022-07-29T00:17:49;17.40;99.90
7972;DHT22;4031;49.758;6.120;2022-07-29T00:20:15;17.30;99.90
7972;DHT22;4031;49.758;6.120;2022-07-29T00:22:41;17.20;99.90
7972;DHT22;4031;49.758;6.120;2022-07-29T00:25:07;17.10;99.90
7972;DHT22;4031;49.758;6.120;2022-07-29T00:27:34;17.20;99.90
7972;DHT22;4031;49.758;6.120;2022-07-29T00:30:01;17.20;99.90
7972;DHT22;4031;49.758;6.120;2022-07-29T00:32:27;17.30;99.90
7972;DHT22;4031;49.758;6.120;2022-07-29T00:34:53;17.40;99.90
7972;DHT22;4031;49.758;6.120;2022-07-29T00:37:37;17.30;99.90
7972;DHT22;4031;49.758;6.120;2022-07-29T00:40:03;17.20;99.90
7972;DHT22;4031;49.758;6.120;2022-07-29T00:42:30;17.20;99.90
7972;DHT22;4031;49.758;6.120;2022-07-29T00:44:55;17.10;99.90
7972;DHT22;4031;49.758;6.120;2022-07-29T00:47:21;17.10;99.90
7972;DHT22;4031;49.758;6.120;2022-07-29T00:49:47;17.00;99.90
7972;DHT22;4031;49.758;6.120;2022-07-29T00:52:13;17.00;99.90
7972;DHT22;4031;49.758;6.120;2022-07-29T00:54:39;16.90;99.90
7972;DHT22;4031;49.758;6.120;2022-07-29T00:57:07;16.90;99.90
7972;DHT22;4031;49.758;6.120;2022-07-29T00:59:33;16.80;99.90
7972;DHT22;4031;49.758;6.120;2022-07-29T01:01:59;16.60;99.90
7972;DHT22;4031;49.758;6.120;2022-07-29T01:04:25;16.50;99.90
7972;DHT22;4031;49.758;6.120;2022-07-29T01:06:52;16.50;99.90
7972;DHT22;4031;49.758;6.120;2022-07-29T01:09:20;16.40;99.90
7972;DHT22;4031;49.758;6.120;2022-07-29T01:11:46;16.30;99.90
7972;DHT22;4031;49.758;6.120;2022-07-29T01:14:14;16.20;99.90
7972;DHT22;4031;49.758;6.120;2022-07-29T01:29:15;15.90;99.90
7972;DHT22;4031;49.758;6.120;2022-07-29T01:32:08;15.70;99.90
7972;DHT22;4031;49.758;6.120;2022-07-29T01:34:58;15.70;99.90
7972;DHT22;4031;49.758;6.120;2022-07-29T01:37:42;15.60;99.90
7972;DHT22;4031;49.758;6.120;2022-07-29T01:40:24;15.50;99.90
7972;DHT22;4031;49.758;6.120;2022-07-29T01:42:55;15.40;99.90
7972;DHT22;4031;49.758;6.120;2022-07-29T01:45:45;15.30;99.90
7972;DHT22;4031;49.758;6.120;2022-07-29T01:48:18;15.20;99.90
7972;DHT22;4031;49.758;6.120;2022-07-29T01:51:14;15.10;99.90
7972;DHT22;4031;49.758;6.120;2022-07-29T01:54:47;15.00;99.90
7972;DHT22;4031;49.758;6.120;2022-07-29T01:56:58;15.00;99.90
7972;DHT22;4031;49.758;6.120;2022-07-29T01:59:25;15.00;99.90
7972;DHT22;4031;49.758;6.120;2022-07-29T02:01:53;15.00;99.90
7972;DHT22;4031;49.758;6.120;2022-07-29T02:04:20;14.90;99.90
7972;DHT22;4031;49.758;6.120;2022-07-29T02:06:49;14.80;99.90
7972;DHT22;4031;49.758;6.120;2022-07-29T02:09:17;14.80;99.90
7972;DHT22;4031;49.758;6.120;2022-07-29T02:11:50;14.70;99.90
7972;DHT22;4031;49.758;6.120;2022-07-29T02:14:19;14.70;99.90
7972;DHT22;4031;49.758;6.120;2022-07-29T02:16:47;14.60;99.90
7972;DHT22;4031;49.758;6.120;2022-07-29T02:19:17;14.60;99.90
7972;DHT22;4031;49.758;6.120;2022-07-29T02:21:45;14.60;99.90
7972;DHT22;4031;49.758;6.120;2022-07-29T02:24:12;14.60;99.90
7972;DHT22;4031;49.758;6.120;2022-07-29T02:26:40;14.70;99.90
7972;DHT22;4031;49.758;6.120;2022-07-29T02:29:07;14.70;99.90
7972;DHT22;4031;49.758;6.120;2022-07-29T02:31:35;14.80;99.90
7972;DHT22;4031;49.758;6.120;2022-07-29T02:34:05;14.80;99.90
7972;DHT22;4031;49.758;6.120;2022-07-29T02:36:32;14.90;99.90
7972;DHT22;4031;49.758;6.120;2022-07-29T02:39:00;14.90;99.90
7972;DHT22;4031;49.758;6.120;2022-07-29T02:41:30;15.00;99.90
7972;DHT22;4031;49.758;6.120;2022-07-29T02:44:04;15.00;99.90
7972;DHT22;4031;49.758;6.120;2022-07-29T02:46:34;15.10;99.90
7972;DHT22;4031;49.758;6.120;2022-07-29T02:49:16;15.20;99.90
7972;DHT22;4031;49.758;6.120;2022-07-29T02:52:04;15.10;99.90
7972;DHT22;4031;49.758;6.120;2022-07-29T02:54:54;15.10;99.90
7972;DHT22;4031;49.758;6.120;2022-07-29T03:00:08;15.00;99.90
7972;DHT22;4031;49.758;6.120;2022-07-29T03:02:41;15.00;99.90
7972;DHT22;4031;49.758;6.120;2022-07-29T03:05:14;15.00;99.90
7972;DHT22;4031;49.758;6.120;2022-07-29T03:07:46;14.90;99.90
7972;DHT22;4031;49.758;6.120;2022-07-29T03:10:17;14.90;99.90
7972;DHT22;4031;49.758;6.120;2022-07-29T03:12:43;14.90;99.90
7972;DHT22;4031;49.758;6.120;2022-07-29T03:15:09;14.80;99.90
7972;DHT22;4031;49.758;6.120;2022-07-29T03:17:36;14.70;99.90
7972;DHT22;4031;49.758;6.120;2022-07-29T03:20:03;14.70;99.90
7972;DHT22;4031;49.758;6.120;2022-07-29T03:22:30;14.70;99.90
7972;DHT22;4031;49.758;6.120;2022-07-29T03:24:56;14.70;99.90
7972;DHT22;4031;49.758;6.120;2022-07-29T03:27:22;14.60;99.90
7972;DHT22;4031;49.758;6.120;2022-07-29T03:29:47;14.60;99.90
7972;DHT22;4031;49.758;6.120;2022-07-29T03:32:13;14.60;99.90
7972;DHT22;4031;49.758;6.120;2022-07-29T03:34:39;14.60;99.90
7972;DHT22;4031;49.758;6.120;2022-07-29T03:37:06;14.60;99.90
7972;DHT22;4031;49.758;6.120;2022-07-29T03:39:36;14.60;99.90
7972;DHT22;4031;49.758;6.120;2022-07-29T03:42:06;14.60;99.90
7972;DHT22;4031;49.758;6.120;2022-07-29T03:44:34;14.60;99.90
7972;DHT22;4031;49.758;6.120;2022-07-29T03:47:01;14.60;99.90
7972;DHT22;4031;49.758;6.120;2022-07-29T03:49:29;14.50;99.90
7972;DHT22;4031;49.758;6.120;2022-07-29T03:51:56;14.50;99.90
7972;DHT22;4031;49.758;6.120;2022-07-29T03:54:22;14.40;99.90
7972;DHT22;4031;49.758;6.120;2022-07-29T03:56:50;14.50;99.90
7972;DHT22;4031;49.758;6.120;2022-07-29T03:59:17;14.40;99.90
7972;DHT22;4031;49.758;6.120;2022-07-29T04:01:45;14.30;99.90
7972;DHT22;4031;49.758;6.120;2022-07-29T04:04:12;14.20;99.90
7972;DHT22;4031;49.758;6.120;2022-07-29T04:06:42;14.10;99.90
7972;DHT22;4031;49.758;6.120;2022-07-29T04:09:09;14.20;99.90
7972;DHT22;4031;49.758;6.120;2022-07-29T04:11:36;14.10;99.90
7972;DHT22;4031;49.758;6.120;2022-07-29T04:14:03;14.00;99.90
7972;DHT22;4031;49.758;6.120;2022-07-29T04:16:29;13.90;99.90
7972;DHT22;4031;49.758;6.120;2022-07-29T04:18:55;13.90;99.90
7972;DHT22;4031;49.758;6.120;2022-07-29T04:21:21;13.90;99.90
7972;DHT22;4031;49.758;6.120;2022-07-29T04:23:47;13.80;99.90
7972;DHT22;4031;49.758;6.120;2022-07-29T04:26:19;13.80;99.90
7972;DHT22;4031;49.758;6.120;2022-07-29T04:28:45;13.80;99.90
7972;DHT22;4031;49.758;6.120;2022-07-29T04:31:12;13.70;99.90
7972;DHT22;4031;49.758;6.120;2022-07-29T04:33:38;13.80;99.90
7972;DHT22;4031;49.758;6.120;2022-07-29T04:36:05;13.80;99.90
7972;DHT22;4031;49.758;6.120;2022-07-29T04:38:31;13.70;99.90
7972;DHT22;4031;49.758;6.120;2022-07-29T04:40:56;13.80;99.90
7972;DHT22;4031;49.758;6.120;2022-07-29T04:43:22;13.70;99.90
7972;DHT22;4031;49.758;6.120;2022-07-29T04:45:48;13.70;99.90
7972;DHT22;4031;49.758;6.120;2022-07-29T04:48:14;13.70;99.90
7972;DHT22;4031;49.758;6.120;2022-07-29T04:50:40;13.70;99.90
7972;DHT22;4031;49.758;6.120;2022-07-29T04:53:06;13.70;99.90
7972;DHT22;4031;49.758;6.120;2022-07-29T04:55:33;13.70;99.90
7972;DHT22;4031;49.758;6.120;2022-07-29T04:57:59;13.70;99.90
7972;DHT22;4031;49.758;6.120;2022-07-29T05:00:25;13.80;99.90
7972;DHT22;4031;49.758;6.120;2022-07-29T05:02:51;13.80;99.90
7972;DHT22;4031;49.758;6.120;2022-07-29T05:05:16;13.90;99.90
7972;DHT22;4031;49.758;6.120;2022-07-29T05:07:42;13.90;99.90
7972;DHT22;4031;49.758;6.120;2022-07-29T05:10:08;14.00;99.90
7972;DHT22;4031;49.758;6.120;2022-07-29T05:12:34;14.10;99.90
7972;DHT22;4031;49.758;6.120;2022-07-29T05:15:00;14.20;99.90
7972;DHT22;4031;49.758;6.120;2022-07-29T05:17:26;14.30;99.90
7972;DHT22;4031;49.758;6.120;2022-07-29T05:19:52;14.40;99.90
7972;DHT22;4031;49.758;6.120;2022-07-29T05:22:19;14.50;99.90
7972;DHT22;4031;49.758;6.120;2022-07-29T05:24:45;14.70;99.90
7972;DHT22;4031;49.758;6.120;2022-07-29T05:27:12;14.70;99.90
7972;DHT22;4031;49.758;6.120;2022-07-29T05:29:38;14.70;99.90
7972;DHT22;4031;49.758;6.120;2022-07-29T05:32:04;14.80;99.90
7972;DHT22;4031;49.758;6.120;2022-07-29T05:34:30;14.90;99.90
7972;DHT22;4031;49.758;6.120;2022-07-29T05:36:56;14.90;99.90
7972;DHT22;4031;49.758;6.120;2022-07-29T05:39:22;15.00;99.90
7972;DHT22;4031;49.758;6.120;2022-07-29T05:41:48;15.10;99.90
7972;DHT22;4031;49.758;6.120;2022-07-29T05:44:14;15.20;99.90
7972;DHT22;4031;49.758;6.120;2022-07-29T05:46:40;15.30;99.90
7972;DHT22;4031;49.758;6.120;2022-07-29T05:49:06;15.40;99.90
7972;DHT22;4031;49.758;6.120;2022-07-29T05:51:33;15.50;99.90
7972;DHT22;4031;49.758;6.120;2022-07-29T05:53:59;15.60;99.90
7972;DHT22;4031;49.758;6.120;2022-07-29T05:56:25;15.80;99.90
7972;DHT22;4031;49.758;6.120;2022-07-29T05:58:51;15.90;99.90
7972;DHT22;4031;49.758;6.120;2022-07-29T06:01:17;16.10;99.90
7972;DHT22;4031;49.758;6.120;2022-07-29T06:03:43;16.20;99.90
7972;DHT22;4031;49.758;6.120;2022-07-29T06:06:09;16.30;99.90
7972;DHT22;4031;49.758;6.120;2022-07-29T06:08:35;16.50;99.90
7972;DHT22;4031;49.758;6.120;2022-07-29T06:11:03;16.70;99.90
7972;DHT22;4031;49.758;6.120;2022-07-29T06:13:29;16.90;99.90
7972;DHT22;4031;49.758;6.120;2022-07-29T06:15:55;17.10;99.90
7972;DHT22;4031;49.758;6.120;2022-07-29T06:18:21;17.30;99.90
7972;DHT22;4031;49.758;6.120;2022-07-29T06:20:50;17.50;99.90
7972;DHT22;4031;49.758;6.120;2022-07-29T06:23:17;17.70;99.90
7972;DHT22;4031;49.758;6.120;2022-07-29T06:25:43;18.00;99.90
7972;DHT22;4031;49.758;6.120;2022-07-29T06:28:08;18.40;99.90
7972;DHT22;4031;49.758;6.120;2022-07-29T06:30:34;19.00;99.90
7972;DHT22;4031;49.758;6.120;2022-07-29T06:33:00;19.60;99.90
7972;DHT22;4031;49.758;6.120;2022-07-29T06:35:27;20.30;99.90
7972;DHT22;4031;49.758;6.120;2022-07-29T06:37:53;21.30;99.90
7972;DHT22;4031;49.758;6.120;2022-07-29T06:40:19;22.30;99.90
7972;DHT22;4031;49.758;6.120;2022-07-29T06:43:04;23.30;99.90
7972;DHT22;4031;49.758;6.120;2022-07-29T06:45:33;24.30;99.90
7972;DHT22;4031;49.758;6.120;2022-07-29T06:47:59;25.30;99.90
7972;DHT22;4031;49.758;6.120;2022-07-29T06:50:25;25.90;99.90
7972;DHT22;4031;49.758;6.120;2022-07-29T06:52:51;26.60;99.90
7972;DHT22;4031;49.758;6.120;2022-07-29T06:55:16;27.50;99.90
7972;DHT22;4031;49.758;6.120;2022-07-29T06:57:44;28.30;99.90
7972;DHT22;4031;49.758;6.120;2022-07-29T07:00:12;29.20;99.90
7972;DHT22;4031;49.758;6.120;2022-07-29T07:02:38;29.70;96.40
7972;DHT22;4031;49.758;6.120;2022-07-29T07:05:04;29.90;95.80
7972;DHT22;4031;49.758;6.120;2022-07-29T07:07:30;30.40;92.60
7972;DHT22;4031;49.758;6.120;2022-07-29T07:09:57;30.30;91.90
7972;DHT22;4031;49.758;6.120;2022-07-29T07:12:23;30.90;86.80
7972;DHT22;4031;49.758;6.120;2022-07-29T07:14:48;31.20;83.00
7972;DHT22;4031;49.758;6.120;2022-07-29T07:17:14;31.60;79.50
7972;DHT22;4031;49.758;6.120;2022-07-29T07:19:40;31.80;77.00
7972;DHT22;4031;49.758;6.120;2022-07-29T07:22:06;31.40;72.60
7972;DHT22;4031;49.758;6.120;2022-07-29T07:24:31;31.80;73.40
7972;DHT22;4031;49.758;6.120;2022-07-29T07:26:57;32.40;72.00
7972;DHT22;4031;49.758;6.120;2022-07-29T07:29:23;32.80;62.00
7972;DHT22;4031;49.758;6.120;2022-07-29T07:31:49;32.40;64.60
7972;DHT22;4031;49.758;6.120;2022-07-29T07:34:14;31.30;62.10
7972;DHT22;4031;49.758;6.120;2022-07-29T07:36:40;30.00;60.60
7972;DHT22;4031;49.758;6.120;2022-07-29T07:39:06;28.80;61.20
7972;DHT22;4031;49.758;6.120;2022-07-29T07:41:32;28.10;63.20
7972;DHT22;4031;49.758;6.120;2022-07-29T07:43:58;28.10;63.70
7972;DHT22;4031;49.758;6.120;2022-07-29T07:46:24;28.90;62.00
7972;DHT22;4031;49.758;6.120;2022-07-29T07:48:49;29.50;62.20
7972;DHT22;4031;49.758;6.120;2022-07-29T07:51:17;30.40;63.20
7972;DHT22;4031;49.758;6.120;2022-07-29T07:53:43;30.80;60.00
7972;DHT22;4031;49.758;6.120;2022-07-29T07:56:10;30.70;59.60
7972;DHT22;4031;49.758;6.120;2022-07-29T07:58:35;30.60;59.50
7972;DHT22;4031;49.758;6.120;2022-07-29T08:01:02;31.00;58.60
7972;DHT22;4031;49.758;6.120;2022-07-29T08:03:28;31.00;58.40
7972;DHT22;4031;49.758;6.120;2022-07-29T08:05:54;31.70;57.50
7972;DHT22;4031;49.758;6.120;2022-07-29T08:08:20;32.40;56.20
7972;DHT22;4031;49.758;6.120;2022-07-29T08:10:46;32.50;55.30
7972;DHT22;4031;49.758;6.120;2022-07-29T08:13:19;32.00;54.90
7972;DHT22;4031;49.758;6.120;2022-07-29T08:15:46;31.40;55.00
7972;DHT22;4031;49.758;6.120;2022-07-29T08:18:12;30.50;54.90
7972;DHT22;4031;49.758;6.120;2022-07-29T08:20:39;30.20;55.10
7972;DHT22;4031;49.758;6.120;2022-07-29T08:23:06;30.00;55.90
7972;DHT22;4031;49.758;6.120;2022-07-29T08:25:36;29.90;55.30
7972;DHT22;4031;49.758;6.120;2022-07-29T08:28:04;31.00;53.90
7972;DHT22;4031;49.758;6.120;2022-07-29T08:30:31;31.90;52.80
7972;DHT22;4031;49.758;6.120;2022-07-29T08:32:57;32.60;52.10
7972;DHT22;4031;49.758;6.120;2022-07-29T08:35:24;33.60;53.00
7972;DHT22;4031;49.758;6.120;2022-07-29T08:37:51;34.50;52.40
7972;DHT22;4031;49.758;6.120;2022-07-29T08:40:18;35.10;51.40
7972;DHT22;4031;49.758;6.120;2022-07-29T08:42:45;35.00;50.20
7972;DHT22;4031;49.758;6.120;2022-07-29T08:45:11;34.10;49.30
7972;DHT22;4031;49.758;6.120;2022-07-29T08:47:39;33.80;50.10
7972;DHT22;4031;49.758;6.120;2022-07-29T08:50:06;34.60;49.70
7972;DHT22;4031;49.758;6.120;2022-07-29T08:52:36;35.00;48.30
7972;DHT22;4031;49.758;6.120;2022-07-29T08:55:05;35.00;48.60
7972;DHT22;4031;49.758;6.120;2022-07-29T08:57:33;34.50;48.40
7972;DHT22;4031;49.758;6.120;2022-07-29T09:00:01;34.50;48.20
7972;DHT22;4031;49.758;6.120;2022-07-29T09:02:35;34.70;48.20
7972;DHT22;4031;49.758;6.120;2022-07-29T09:05:02;35.30;47.50
7972;DHT22;4031;49.758;6.120;2022-07-29T09:07:30;35.80;46.80
7972;DHT22;4031;49.758;6.120;2022-07-29T09:09:56;36.50;46.00
7972;DHT22;4031;49.758;6.120;2022-07-29T09:12:22;36.20;45.40
7972;DHT22;4031;49.758;6.120;2022-07-29T09:14:50;35.70;44.80
7972;DHT22;4031;49.758;6.120;2022-07-29T09:17:16;36.00;45.20
7972;DHT22;4031;49.758;6.120;2022-07-29T09:19:43;36.30;45.10
7972;DHT22;4031;49.758;6.120;2022-07-29T09:22:09;36.70;43.40
7972;DHT22;4031;49.758;6.120;2022-07-29T09:24:46;36.80;43.80
7972;DHT22;4031;49.758;6.120;2022-07-29T09:27:25;37.00;43.20
7972;DHT22;4031;49.758;6.120;2022-07-29T09:30:05;37.70;42.40
7972;DHT22;4031;49.758;6.120;2022-07-29T09:32:58;37.80;41.40
7972;DHT22;4031;49.758;6.120;2022-07-29T09:35:27;38.20;41.40
7972;DHT22;4031;49.758;6.120;2022-07-29T09:37:54;38.30;41.10
7972;DHT22;4031;49.758;6.120;2022-07-29T09:40:22;38.60;41.20
7972;DHT22;4031;49.758;6.120;2022-07-29T09:42:50;38.90;40.30
7972;DHT22;4031;49.758;6.120;2022-07-29T09:47:53;37.60;38.90
7972;DHT22;4031;49.758;6.120;2022-07-29T09:50:21;37.70;39.70
7972;DHT22;4031;49.758;6.120;2022-07-29T09:52:53;37.40;40.10
7972;DHT22;4031;49.758;6.120;2022-07-29T09:55:19;37.10;40.50
7972;DHT22;4031;49.758;6.120;2022-07-29T09:57:46;36.80;40.70
7972;DHT22;4031;49.758;6.120;2022-07-29T10:00:17;36.00;41.20
7972;DHT22;4031;49.758;6.120;2022-07-29T10:02:45;35.90;40.90
7972;DHT22;4031;49.758;6.120;2022-07-29T10:05:23;36.30;40.60
7972;DHT22;4031;49.758;6.120;2022-07-29T10:07:53;36.50;39.90
7972;DHT22;4031;49.758;6.120;2022-07-29T10:12:50;37.30;39.60
7972;DHT22;4031;49.758;6.120;2022-07-29T10:15:28;37.00;40.60
7972;DHT22;4031;49.758;6.120;2022-07-29T10:17:56;37.00;39.30
7972;DHT22;4031;49.758;6.120;2022-07-29T10:20:23;37.00;39.30
7972;DHT22;4031;49.758;6.120;2022-07-29T10:22:51;37.10;39.70
7972;DHT22;4031;49.758;6.120;2022-07-29T10:25:18;37.00;38.90
7972;DHT22;4031;49.758;6.120;2022-07-29T10:27:46;36.90;39.60
7972;DHT22;4031;49.758;6.120;2022-07-29T10:30:14;37.00;38.70
7972;DHT22;4031;49.758;6.120;2022-07-29T10:44:21;39.20;37.80
7972;DHT22;4031;49.758;6.120;2022-07-29T10:46:49;38.90;37.70
7972;DHT22;4031;49.758;6.120;2022-07-29T10:49:20;38.20;38.70
7972;DHT22;4031;49.758;6.120;2022-07-29T10:54:17;38.00;38.60
7972;DHT22;4031;49.758;6.120;2022-07-29T10:56:43;38.60;38.80
7972;DHT22;4031;49.758;6.120;2022-07-29T11:01:48;38.20;38.90
7972;DHT22;4031;49.758;6.120;2022-07-29T11:07:09;36.00;40.00
7972;DHT22;4031;49.758;6.120;2022-07-29T11:09:35;35.00;40.60
7972;DHT22;4031;49.758;6.120;2022-07-29T11:12:01;34.30;41.20
7972;DHT22;4031;49.758;6.120;2022-07-29T11:17:17;33.30;42.40
7972;DHT22;4031;49.758;6.120;2022-07-29T11:19:43;32.70;42.90
7972;DHT22;4031;49.758;6.120;2022-07-29T11:22:10;32.70;42.40
7972;DHT22;4031;49.758;6.120;2022-07-29T11:24:38;32.70;43.20
7972;DHT22;4031;49.758;6.120;2022-07-29T11:27:12;32.70;42.80
7972;DHT22;4031;49.758;6.120;2022-07-29T11:29:52;32.50;43.10
7972;DHT22;4031;49.758;6.120;2022-07-29T11:32:19;32.50;43.30
7972;DHT22;4031;49.758;6.120;2022-07-29T11:34:47;32.60;42.60
7972;DHT22;4031;49.758;6.120;2022-07-29T11:37:15;32.50;42.90
7972;DHT22;4031;49.758;6.120;2022-07-29T11:45:01;31.90;43.60
7972;DHT22;4031;49.758;6.120;2022-07-29T11:47:47;31.60;45.70
7972;DHT22;4031;49.758;6.120;2022-07-29T11:50:17;31.80;44.00
7972;DHT22;4031;49.758;6.120;2022-07-29T11:52:52;32.40;44.60
7972;DHT22;4031;49.758;6.120;2022-07-29T11:55:20;33.50;42.30
7972;DHT22;4031;49.758;6.120;2022-07-29T11:57:55;33.90;42.20
7972;DHT22;4031;49.758;6.120;2022-07-29T12:00:36;34.60;42.00
7972;DHT22;4031;49.758;6.120;2022-07-29T12:03:05;35.10;40.50
7972;DHT22;4031;49.758;6.120;2022-07-29T12:05:35;35.20;41.20
7972;DHT22;4031;49.758;6.120;2022-07-29T12:10:53;36.30;40.00
7972;DHT22;4031;49.758;6.120;2022-07-29T12:13:20;36.30;39.90
7972;DHT22;4031;49.758;6.120;2022-07-29T12:15:56;36.60;40.00
7972;DHT22;4031;49.758;6.120;2022-07-29T12:18:23;36.80;38.70
7972;DHT22;4031;49.758;6.120;2022-07-29T12:20:59;36.40;39.40
7972;DHT22;4031;49.758;6.120;2022-07-29T12:23:32;36.10;39.30
7972;DHT22;4031;49.758;6.120;2022-07-29T12:25:58;36.20;38.50
7972;DHT22;4031;49.758;6.120;2022-07-29T12:28:25;36.10;38.50
7972;DHT22;4031;49.758;6.120;2022-07-29T12:30:51;36.20;38.90
7972;DHT22;4031;49.758;6.120;2022-07-29T12:33:28;36.30;39.20
7972;DHT22;4031;49.758;6.120;2022-07-29T12:35:57;36.50;38.60
7972;DHT22;4031;49.758;6.120;2022-07-29T12:38:24;36.60;38.70
7972;DHT22;4031;49.758;6.120;2022-07-29T12:40:51;36.30;38.60
7972;DHT22;4031;49.758;6.120;2022-07-29T12:43:20;36.60;37.70
7972;DHT22;4031;49.758;6.120;2022-07-29T12:45:48;36.60;37.80
7972;DHT22;4031;49.758;6.120;2022-07-29T12:48:39;36.60;38.50
7972;DHT22;4031;49.758;6.120;2022-07-29T12:51:07;36.70;38.50
7972;DHT22;4031;49.758;6.120;2022-07-29T12:53:35;36.80;38.60
7972;DHT22;4031;49.758;6.120;2022-07-29T12:56:03;36.90;37.60
7972;DHT22;4031;49.758;6.120;2022-07-29T12:58:34;35.80;37.60
7972;DHT22;4031;49.758;6.120;2022-07-29T13:03:50;33.80;39.40
7972;DHT22;4031;49.758;6.120;2022-07-29T13:06:44;33.60;41.00
7972;DHT22;4031;49.758;6.120;2022-07-29T13:11:44;36.10;38.20
7972;DHT22;4031;49.758;6.120;2022-07-29T13:14:12;37.20;39.00
7972;DHT22;4031;49.758;6.120;2022-07-29T13:17:06;37.30;37.00
7972;DHT22;4031;49.758;6.120;2022-07-29T13:19:50;36.20;37.50
7972;DHT22;4031;49.758;6.120;2022-07-29T13:22:23;34.60;38.50
7972;DHT22;4031;49.758;6.120;2022-07-29T13:27:28;33.00;40.80
7972;DHT22;4031;49.758;6.120;2022-07-29T13:29:56;32.40;42.10
7972;DHT22;4031;49.758;6.120;2022-07-29T13:32:24;32.00;43.30
7972;DHT22;4031;49.758;6.120;2022-07-29T13:34:51;31.60;43.50
7972;DHT22;4031;49.758;6.120;2022-07-29T13:37:17;31.10;43.50
7972;DHT22;4031;49.758;6.120;2022-07-29T13:39:43;30.60;44.00
7972;DHT22;4031;49.758;6.120;2022-07-29T13:42:09;30.20;46.00
7972;DHT22;4031;49.758;6.120;2022-07-29T13:44:38;30.20;45.70
7972;DHT22;4031;49.758;6.120;2022-07-29T13:47:07;31.10;46.40
7972;DHT22;4031;49.758;6.120;2022-07-29T13:49:34;31.60;44.60
7972;DHT22;4031;49.758;6.120;2022-07-29T13:52:00;32.40;43.60
7972;DHT22;4031;49.758;6.120;2022-07-29T13:54:26;33.30;42.50
7972;DHT22;4031;49.758;6.120;2022-07-29T13:56:51;34.40;42.00
7972;DHT22;4031;49.758;6.120;2022-07-29T13:59:17;35.10;41.50
7972;DHT22;4031;49.758;6.120;2022-07-29T14:01:43;35.70;39.90
7972;DHT22;4031;49.758;6.120;2022-07-29T14:04:10;36.00;39.70
7972;DHT22;4031;49.758;6.120;2022-07-29T14:06:36;36.40;39.80
7972;DHT22;4031;49.758;6.120;2022-07-29T14:09:03;36.80;40.00
7972;DHT22;4031;49.758;6.120;2022-07-29T14:11:34;36.80;39.30
7972;DHT22;4031;49.758;6.120;2022-07-29T14:14:00;37.20;39.40
7972;DHT22;4031;49.758;6.120;2022-07-29T14:16:26;36.60;38.30
7972;DHT22;4031;49.758;6.120;2022-07-29T14:18:52;36.10;39.50
7972;DHT22;4031;49.758;6.120;2022-07-29T14:21:18;36.00;39.00
7972;DHT22;4031;49.758;6.120;2022-07-29T14:23:43;36.30;39.90
7972;DHT22;4031;49.758;6.120;2022-07-29T14:26:09;36.50;38.40
7972;DHT22;4031;49.758;6.120;2022-07-29T14:28:35;36.30;38.30
7972;DHT22;4031;49.758;6.120;2022-07-29T14:31:01;35.20;38.90
7972;DHT22;4031;49.758;6.120;2022-07-29T14:33:27;35.00;39.40
7972;DHT22;4031;49.758;6.120;2022-07-29T14:35:52;35.60;39.20
7972;DHT22;4031;49.758;6.120;2022-07-29T14:38:18;35.40;37.70
7972;DHT22;4031;49.758;6.120;2022-07-29T14:40:44;34.50;38.30
7972;DHT22;4031;49.758;6.120;2022-07-29T14:43:12;34.50;40.00
7972;DHT22;4031;49.758;6.120;2022-07-29T14:45:40;34.10;39.60
7972;DHT22;4031;49.758;6.120;2022-07-29T14:48:06;32.90;40.00
7972;DHT22;4031;49.758;6.120;2022-07-29T14:50:32;32.50;40.80
7972;DHT22;4031;49.758;6.120;2022-07-29T14:52:59;33.20;40.70
7972;DHT22;4031;49.758;6.120;2022-07-29T14:55:26;33.60;40.70
7972;DHT22;4031;49.758;6.120;2022-07-29T14:57:52;33.70;40.50
7972;DHT22;4031;49.758;6.120;2022-07-29T15:00:18;34.00;40.90
7972;DHT22;4031;49.758;6.120;2022-07-29T15:02:46;34.20;40.40
7972;DHT22;4031;49.758;6.120;2022-07-29T15:05:12;34.50;40.00
7972;DHT22;4031;49.758;6.120;2022-07-29T15:07:38;34.70;39.60
7972;DHT22;4031;49.758;6.120;2022-07-29T15:10:04;35.00;39.60
7972;DHT22;4031;49.758;6.120;2022-07-29T15:12:31;35.50;39.20
7972;DHT22;4031;49.758;6.120;2022-07-29T15:14:57;35.60;39.50
7972;DHT22;4031;49.758;6.120;2022-07-29T15:17:23;35.70;39.10
7972;DHT22;4031;49.758;6.120;2022-07-29T15:19:48;35.70;38.60
7972;DHT22;4031;49.758;6.120;2022-07-29T15:22:14;35.30;38.40
7972;DHT22;4031;49.758;6.120;2022-07-29T15:24:40;34.90;39.10
7972;DHT22;4031;49.758;6.120;2022-07-29T15:27:05;34.60;39.10
7972;DHT22;4031;49.758;6.120;2022-07-29T15:29:31;33.40;40.30
7972;DHT22;4031;49.758;6.120;2022-07-29T15:31:58;32.10;41.80
7972;DHT22;4031;49.758;6.120;2022-07-29T15:34:24;31.70;43.50
7972;DHT22;4031;49.758;6.120;2022-07-29T15:36:51;31.90;43.10
7972;DHT22;4031;49.758;6.120;2022-07-29T15:39:17;31.70;43.50
7972;DHT22;4031;49.758;6.120;2022-07-29T15:41:42;31.40;42.10
7972;DHT22;4031;49.758;6.120;2022-07-29T15:44:08;30.70;43.40
7972;DHT22;4031;49.758;6.120;2022-07-29T15:46:34;30.10;45.30
7972;DHT22;4031;49.758;6.120;2022-07-29T15:49:19;30.30;44.50
7972;DHT22;4031;49.758;6.120;2022-07-29T15:51:44;30.20;46.00
7972;DHT22;4031;49.758;6.120;2022-07-29T15:54:10;30.40;46.20
7972;DHT22;4031;49.758;6.120;2022-07-29T15:56:36;30.80;45.30
7972;DHT22;4031;49.758;6.120;2022-07-29T15:59:03;31.00;45.00
7972;DHT22;4031;49.758;6.120;2022-07-29T16:01:28;30.70;44.80
7972;DHT22;4031;49.758;6.120;2022-07-29T16:03:54;30.70;45.70
7972;DHT22;4031;49.758;6.120;2022-07-29T16:06:20;30.60;45.20
7972;DHT22;4031;49.758;6.120;2022-07-29T16:08:46;30.60;45.30
7972;DHT22;4031;49.758;6.120;2022-07-29T16:11:11;30.60;45.00
7972;DHT22;4031;49.758;6.120;2022-07-29T16:13:37;30.60;44.70
7972;DHT22;4031;49.758;6.120;2022-07-29T17:33:32;26.20;51.90
7972;DHT22;4031;49.758;6.120;2022-07-29T17:35:57;26.00;52.20
7972;DHT22;4031;49.758;6.120;2022-07-29T17:38:41;25.90;52.30
7972;DHT22;4031;49.758;6.120;2022-07-29T17:41:07;25.80;51.90
7972;DHT22;4031;49.758;6.120;2022-07-29T17:43:33;25.80;53.10
7972;DHT22;4031;49.758;6.120;2022-07-29T17:45:58;25.60;52.90
7972;DHT22;4031;49.758;6.120;2022-07-29T17:48:24;25.50;53.40
7972;DHT22;4031;49.758;6.120;2022-07-29T17:50:50;25.40;54.40
7972;DHT22;4031;49.758;6.120;2022-07-29T17:53:16;25.40;54.30
7972;DHT22;4031;49.758;6.120;2022-07-29T17:55:43;25.30;54.50
7972;DHT22;4031;49.758;6.120;2022-07-29T17:58:09;25.30;55.20
7972;DHT22;4031;49.758;6.120;2022-07-29T18:00:35;25.20;54.20
7972;DHT22;4031;49.758;6.120;2022-07-29T18:03:02;25.10;54.40
7972;DHT22;4031;49.758;6.120;2022-07-29T18:05:28;25.00;55.30
7972;DHT22;4031;49.758;6.120;2022-07-29T18:07:53;24.90;55.60
7972;DHT22;4031;49.758;6.120;2022-07-29T18:10:23;24.80;55.90
7972;DHT22;4031;49.758;6.120;2022-07-29T18:12:49;24.80;56.20
7972;DHT22;4031;49.758;6.120;2022-07-29T18:15:14;24.80;55.70
7972;DHT22;4031;49.758;6.120;2022-07-29T18:17:40;24.70;56.40
7972;DHT22;4031;49.758;6.120;2022-07-29T18:20:06;24.60;56.60
7972;DHT22;4031;49.758;6.120;2022-07-29T18:22:32;24.60;56.60
7972;DHT22;4031;49.758;6.120;2022-07-29T18:24:58;24.40;56.60